createdAt,value
2023-03-11T00:00:35.836Z,18.11
2023-03-11T00:01:35.859Z,18.11
2023-03-11T00:02:35.876Z,18.14
2023-03-11T00:03:35.898Z,18.11
2023-03-11T00:04:35.918Z,18.13
2023-03-11T00:05:35.968Z,18.16
2023-03-11T00:06:35.966Z,18.11
2023-03-11T00:07:35.944Z,18.16
2023-03-11T00:08:35.990Z,18.14
2023-03-11T00:09:35.991Z,18.19
2023-03-11T00:10:35.960Z,18.20
2023-03-11T00:11:35.980Z,18.20
2023-03-11T00:12:35.989Z,18.23
2023-03-11T00:13:36.021Z,18.23
2023-03-11T00:14:35.994Z,18.20
2023-03-11T00:15:36.019Z,18.21
2023-03-11T00:16:36.172Z,18.21
2023-03-11T00:17:36.055Z,18.14
2023-03-11T00:18:36.080Z,18.11
2023-03-11T00:19:36.094Z,18.11
2023-03-11T00:20:36.125Z,18.19
2023-03-11T00:21:36.139Z,18.20
2023-03-11T00:22:36.154Z,18.21
2023-03-11T00:23:36.186Z,18.25
2023-03-11T00:24:36.199Z,18.21
2023-03-11T00:25:36.242Z,18.20
2023-03-11T00:26:36.212Z,18.19
2023-03-11T00:27:36.229Z,18.25
2023-03-11T00:28:36.248Z,18.26
2023-03-11T00:29:36.272Z,18.28
2023-03-11T00:30:36.270Z,18.28
2023-03-11T00:31:36.263Z,18.26
2023-03-11T00:32:36.348Z,18.19
2023-03-11T00:33:36.281Z,18.20
2023-03-11T00:34:36.302Z,18.21
2023-03-11T00:35:36.374Z,18.19
2023-03-11T00:36:36.325Z,18.19
2023-03-11T00:37:36.360Z,18.19
2023-03-11T00:38:36.451Z,18.19
2023-03-11T00:39:36.397Z,18.21
2023-03-11T00:40:36.435Z,18.25
2023-03-11T00:41:36.451Z,18.23
2023-03-11T00:42:36.446Z,18.20
2023-03-11T00:43:36.464Z,18.21
2023-03-11T00:44:36.480Z,18.17
2023-03-11T00:45:36.501Z,18.16
2023-03-11T00:46:36.576Z,18.13
2023-03-11T00:47:36.542Z,18.17
2023-03-11T00:48:36.566Z,18.20
2023-03-11T00:49:36.592Z,18.20
2023-03-11T00:50:36.602Z,18.21
2023-03-11T00:51:36.623Z,18.23
2023-03-11T00:52:36.656Z,18.23
2023-03-11T00:53:36.637Z,18.20
2023-03-11T00:54:36.656Z,18.16
2023-03-11T00:55:36.669Z,18.14
2023-03-11T00:56:36.692Z,18.16
2023-03-11T00:57:36.794Z,18.13
2023-03-11T00:58:36.716Z,18.17
2023-03-11T00:59:36.742Z,18.13
2023-03-11T01:00:36.768Z,18.17
2023-03-11T01:01:36.846Z,18.23
2023-03-11T01:02:37.100Z,18.25
2023-03-11T01:03:36.800Z,18.29
2023-03-11T01:04:36.859Z,18.26
2023-03-11T01:05:36.835Z,18.21
2023-03-11T01:06:45.069Z,18.23
2023-03-11T01:07:36.855Z,18.19
2023-03-11T01:08:36.899Z,18.23
2023-03-11T01:09:36.911Z,18.23
2023-03-11T01:10:36.943Z,18.25
2023-03-11T01:11:36.924Z,18.23
2023-03-11T01:12:36.961Z,18.26
2023-03-11T01:13:36.965Z,18.28
2023-03-11T01:14:36.926Z,18.29
2023-03-11T01:15:37.114Z,18.28
2023-03-11T01:16:36.927Z,18.29
2023-03-11T01:17:36.943Z,18.26
2023-03-11T01:18:36.967Z,18.25
2023-03-11T01:19:36.982Z,18.26
2023-03-11T01:20:37.001Z,18.26
2023-03-11T01:21:37.043Z,18.23
2023-03-11T01:22:37.056Z,18.16
2023-03-11T01:23:37.071Z,18.17
2023-03-11T01:24:37.087Z,18.17
2023-03-11T01:25:37.109Z,18.20
2023-03-11T01:26:37.134Z,18.20
2023-03-11T01:27:37.148Z,18.20
2023-03-11T01:28:37.160Z,18.19
2023-03-11T01:29:37.204Z,18.14
2023-03-11T01:30:37.175Z,18.19
2023-03-11T01:31:37.199Z,18.16
2023-03-11T01:32:37.282Z,18.19
2023-03-11T01:33:37.247Z,18.20
2023-03-11T01:34:37.284Z,18.17
2023-03-11T01:35:37.282Z,18.13
2023-03-11T01:36:37.282Z,18.16
2023-03-11T01:37:37.250Z,18.16
2023-03-11T01:38:37.276Z,18.17
2023-03-11T01:39:37.253Z,18.17
2023-03-11T01:40:37.275Z,18.16
2023-03-11T01:41:37.315Z,18.17
2023-03-11T01:42:37.326Z,18.16
2023-03-11T01:43:37.363Z,18.16
2023-03-11T01:44:37.372Z,18.16
2023-03-11T01:45:37.431Z,18.17
2023-03-11T01:46:37.509Z,18.19
2023-03-11T01:47:37.431Z,18.17
2023-03-11T01:48:37.402Z,18.19
2023-03-11T01:49:37.429Z,18.20
2023-03-11T01:50:37.440Z,18.25
2023-03-11T01:51:37.499Z,18.26
2023-03-11T01:52:37.470Z,18.26
2023-03-11T01:53:37.481Z,18.28
2023-03-11T01:54:37.500Z,18.29
2023-03-11T01:55:37.499Z,18.26
2023-03-11T01:56:37.461Z,18.25
2023-03-11T01:57:37.493Z,18.26
2023-03-11T01:58:37.505Z,18.25
2023-03-11T01:59:37.519Z,18.29
2023-03-11T02:00:37.533Z,18.28
2023-03-11T02:01:38.187Z,18.23
2023-03-11T02:02:37.681Z,18.25
2023-03-11T02:03:37.586Z,18.23
2023-03-11T02:04:37.594Z,18.23
2023-03-11T02:05:37.615Z,18.21
2023-03-11T02:06:37.639Z,18.21
2023-03-11T02:07:37.674Z,18.21
2023-03-11T02:08:37.648Z,18.21
2023-03-11T02:09:37.663Z,18.28
2023-03-11T02:10:37.680Z,18.26
2023-03-11T02:11:37.725Z,18.25
2023-03-11T02:12:37.690Z,18.25
2023-03-11T02:13:37.708Z,18.23
2023-03-11T02:14:37.734Z,18.17
2023-03-11T02:15:39.855Z,18.16
2023-03-11T02:16:37.807Z,18.17
2023-03-11T02:17:37.805Z,18.19
2023-03-11T02:18:37.777Z,18.13
2023-03-11T02:19:37.813Z,18.16
2023-03-11T02:20:37.825Z,18.19
2023-03-11T02:21:37.855Z,18.21
2023-03-11T02:22:37.840Z,18.16
2023-03-11T02:23:37.826Z,18.17
2023-03-11T02:24:37.852Z,18.20
2023-03-11T02:25:37.852Z,18.20
2023-03-11T02:26:37.893Z,18.23
2023-03-11T02:27:37.865Z,18.23
2023-03-11T02:28:37.883Z,18.26
2023-03-11T02:29:37.896Z,18.28
2023-03-11T02:30:37.942Z,18.23
2023-03-11T02:31:38.080Z,18.20
2023-03-11T02:32:38.138Z,18.23
2023-03-11T02:33:38.024Z,18.26
2023-03-11T02:34:37.995Z,18.23
2023-03-11T02:35:38.066Z,18.21
2023-03-11T02:36:38.016Z,18.25
2023-03-11T02:37:38.035Z,18.28
2023-03-11T02:38:38.087Z,18.26
2023-03-11T02:39:38.063Z,18.28
2023-03-11T02:40:38.081Z,18.26
2023-03-11T02:41:38.106Z,18.25
2023-03-11T02:42:38.132Z,18.25
2023-03-11T02:43:38.155Z,18.23
2023-03-11T02:44:38.136Z,18.26
2023-03-11T02:45:38.147Z,18.25
2023-03-11T02:46:38.256Z,18.19
2023-03-11T02:47:38.183Z,18.13
2023-03-11T02:48:38.208Z,18.14
2023-03-11T02:49:38.209Z,18.19
2023-03-11T02:50:38.175Z,18.19
2023-03-11T02:51:38.194Z,18.20
2023-03-11T02:52:38.204Z,18.21
2023-03-11T02:53:38.228Z,18.23
2023-03-11T02:54:38.247Z,18.21
2023-03-11T02:55:38.284Z,18.21
2023-03-11T02:56:38.282Z,18.26
2023-03-11T02:57:38.294Z,18.23
2023-03-11T02:58:38.317Z,18.20
2023-03-11T02:59:38.332Z,18.21
2023-03-11T03:00:38.408Z,18.23
2023-03-11T03:01:38.385Z,18.20
2023-03-11T03:02:38.401Z,18.21
2023-03-11T03:03:38.436Z,18.19
2023-03-11T03:04:38.419Z,18.20
2023-03-11T03:05:38.474Z,18.20
2023-03-11T03:06:38.448Z,18.17
2023-03-11T03:07:38.470Z,18.20
2023-03-11T03:08:38.470Z,18.23
2023-03-11T03:09:38.460Z,18.20
2023-03-11T03:10:38.470Z,18.23
2023-03-11T03:11:38.498Z,18.21
2023-03-11T03:12:38.485Z,18.25
2023-03-11T03:13:38.476Z,18.26
2023-03-11T03:14:38.471Z,18.19
2023-03-11T03:15:38.465Z,18.16
2023-03-11T03:16:38.741Z,18.19
2023-03-11T03:17:38.534Z,18.19
2023-03-11T03:18:38.467Z,18.20
2023-03-11T03:19:38.490Z,18.20
2023-03-11T03:20:38.498Z,18.19
2023-03-11T03:21:38.552Z,18.20
2023-03-11T03:22:38.746Z,18.23
2023-03-11T03:23:38.541Z,18.20
2023-03-11T03:24:38.595Z,18.19
2023-03-11T03:25:38.562Z,18.16
2023-03-11T03:26:38.579Z,18.17
2023-03-11T03:27:38.587Z,18.19
2023-03-11T03:28:38.597Z,18.16
2023-03-11T03:29:38.632Z,18.16
2023-03-11T03:30:38.647Z,18.14
2023-03-11T03:31:38.698Z,18.11
2023-03-11T03:32:38.747Z,18.11
2023-03-11T03:33:38.656Z,18.13
2023-03-11T03:34:38.707Z,18.16
2023-03-11T03:35:38.705Z,18.17
2023-03-11T03:36:38.677Z,18.16
2023-03-11T03:37:38.714Z,18.16
2023-03-11T03:38:38.691Z,18.16
2023-03-11T03:39:38.962Z,18.21
2023-03-11T03:40:38.712Z,18.16
2023-03-11T03:41:38.747Z,18.16
2023-03-11T03:42:38.757Z,18.17
2023-03-11T03:43:38.768Z,18.17
2023-03-11T03:44:38.793Z,18.10
2023-03-11T03:45:38.934Z,18.07
2023-03-11T03:46:38.767Z,18.09
2023-03-11T03:47:38.803Z,18.09
2023-03-11T03:48:38.792Z,18.10
2023-03-11T03:49:38.830Z,18.14
2023-03-11T03:50:38.805Z,18.17
2023-03-11T03:51:38.794Z,18.11
2023-03-11T03:52:38.809Z,18.13
2023-03-11T03:53:38.861Z,18.11
2023-03-11T03:54:38.829Z,18.10
2023-03-11T03:55:38.853Z,18.11
2023-03-11T03:56:38.882Z,18.10
2023-03-11T03:57:38.905Z,18.10
2023-03-11T03:58:38.933Z,18.14
2023-03-11T03:59:38.961Z,18.16
2023-03-11T04:00:38.976Z,18.17
2023-03-11T04:01:38.984Z,18.19
2023-03-11T04:02:39.096Z,18.17
2023-03-11T04:03:39.139Z,18.16
2023-03-11T04:04:39.044Z,18.09
2023-03-11T04:05:39.023Z,18.10
2023-03-11T04:06:39.057Z,18.11
2023-03-11T04:07:39.070Z,18.10
2023-03-11T04:08:39.096Z,18.11
2023-03-11T04:09:39.160Z,18.16
2023-03-11T04:10:39.134Z,18.20
2023-03-11T04:11:39.145Z,18.17
2023-03-11T04:12:39.171Z,18.21
2023-03-11T04:13:39.185Z,18.16
2023-03-11T04:14:39.216Z,18.11
2023-03-11T04:15:39.198Z,18.14
2023-03-11T04:16:39.320Z,18.14
2023-03-11T04:17:39.229Z,18.17
2023-03-11T04:18:39.242Z,18.14
2023-03-11T04:19:39.281Z,18.13
2023-03-11T04:20:39.258Z,18.10
2023-03-11T04:21:39.250Z,18.11
2023-03-11T04:22:39.270Z,18.14
2023-03-11T04:23:39.284Z,18.17
2023-03-11T04:24:39.576Z,18.14
2023-03-11T04:25:39.356Z,18.11
2023-03-11T04:26:39.324Z,18.13
2023-03-11T04:27:39.340Z,18.11
2023-03-11T04:28:39.357Z,18.13
2023-03-11T04:29:39.395Z,18.16
2023-03-11T04:30:39.392Z,18.16
2023-03-11T04:31:39.369Z,18.10
2023-03-11T04:32:39.423Z,18.07
2023-03-11T04:33:39.392Z,18.04
2023-03-11T04:34:39.440Z,18.04
2023-03-11T04:35:39.419Z,18.04
2023-03-11T04:36:39.396Z,18.07
2023-03-11T04:37:39.421Z,18.05
2023-03-11T04:38:39.460Z,18.01
2023-03-11T04:39:39.454Z,18.02
2023-03-11T04:40:39.472Z,18.01
2023-03-11T04:41:39.514Z,18.02
2023-03-11T04:42:39.477Z,18.07
2023-03-11T04:43:39.518Z,18.05
2023-03-11T04:44:39.513Z,18.09
2023-03-11T04:45:39.507Z,18.07
2023-03-11T04:46:39.491Z,18.09
2023-03-11T04:47:39.513Z,18.05
2023-03-11T04:48:39.539Z,18.04
2023-03-11T04:49:39.577Z,18.07
2023-03-11T04:50:39.546Z,18.07
2023-03-11T04:51:39.573Z,18.05
2023-03-11T04:52:39.584Z,18.04
2023-03-11T04:53:39.602Z,18.02
2023-03-11T04:54:39.644Z,18.01
2023-03-11T04:55:39.608Z,18.02
2023-03-11T04:56:39.632Z,18.02
2023-03-11T04:57:39.674Z,18.07
2023-03-11T04:58:39.654Z,18.02
2023-03-11T04:59:39.952Z,18.02
2023-03-11T05:00:39.700Z,18.01
2023-03-11T05:01:39.751Z,18.05
2023-03-11T05:02:39.743Z,18.04
2023-03-11T05:03:39.769Z,18.09
2023-03-11T05:04:39.798Z,18.05
2023-03-11T05:05:39.745Z,18.05
2023-03-11T05:06:39.773Z,18.04
2023-03-11T05:07:39.758Z,18.05
2023-03-11T05:08:39.773Z,18.04
2023-03-11T05:09:39.798Z,18.07
2023-03-11T05:10:39.825Z,18.05
2023-03-11T05:11:39.810Z,18.04
2023-03-11T05:12:39.844Z,18.02
2023-03-11T05:13:39.836Z,18.02
2023-03-11T05:14:39.807Z,18.01
2023-03-11T05:15:39.829Z,17.98
2023-03-11T05:16:39.813Z,17.98
2023-03-11T05:17:39.827Z,18.01
2023-03-11T05:18:39.849Z,18.02
2023-03-11T05:19:39.878Z,18.01
2023-03-11T05:20:39.899Z,18.04
2023-03-11T05:21:39.927Z,18.04
2023-03-11T05:22:39.940Z,18.02
2023-03-11T05:23:39.963Z,18.02
2023-03-11T05:24:40.005Z,17.98
2023-03-11T05:25:40.001Z,17.99
2023-03-11T05:26:39.969Z,18.05
2023-03-11T05:27:40.001Z,18.07
2023-03-11T05:28:40.043Z,17.99
2023-03-11T05:29:40.050Z,17.96
2023-03-11T05:30:40.025Z,18.01
2023-03-11T05:31:40.043Z,18.01
2023-03-11T05:32:40.108Z,17.96
2023-03-11T05:33:40.065Z,17.96
2023-03-11T05:34:40.065Z,17.98
2023-03-11T05:35:40.077Z,17.92
2023-03-11T05:36:40.062Z,17.96
2023-03-11T05:37:40.101Z,17.94
2023-03-11T05:38:40.122Z,17.96
2023-03-11T05:39:40.416Z,17.98
2023-03-11T05:40:40.168Z,17.92
2023-03-11T05:41:40.188Z,17.94
2023-03-11T05:42:40.227Z,17.95
2023-03-11T05:43:40.201Z,17.95
2023-03-11T05:44:40.227Z,17.99
2023-03-11T05:45:40.272Z,18.04
2023-03-11T05:46:40.352Z,17.99
2023-03-11T05:47:40.229Z,17.99
2023-03-11T05:48:40.248Z,18.01
2023-03-11T05:49:40.259Z,18.02
2023-03-11T05:50:40.298Z,18.01
2023-03-11T05:51:40.315Z,18.02
2023-03-11T05:52:40.370Z,18.04
2023-03-11T05:53:40.341Z,18.02
2023-03-11T05:54:40.357Z,18.02
2023-03-11T05:55:40.381Z,17.96
2023-03-11T05:56:40.416Z,18.01
2023-03-11T05:57:40.438Z,18.02
2023-03-11T05:58:40.420Z,18.09
2023-03-11T05:59:40.448Z,18.05
2023-03-11T06:00:40.483Z,18.05
2023-03-11T06:01:40.508Z,18.07
2023-03-11T06:02:40.495Z,18.10
2023-03-11T06:03:40.506Z,18.10
2023-03-11T06:04:40.619Z,18.09
2023-03-11T06:05:40.520Z,18.07
2023-03-11T06:06:40.592Z,18.07
2023-03-11T06:07:40.578Z,18.07
2023-03-11T06:08:40.559Z,18.11
2023-03-11T06:09:40.594Z,18.16
2023-03-11T06:10:40.588Z,18.14
2023-03-11T06:11:40.613Z,18.10
2023-03-11T06:12:40.632Z,18.05
2023-03-11T06:13:40.654Z,18.09
2023-03-11T06:14:40.684Z,18.11
2023-03-11T06:15:40.716Z,18.17
2023-03-11T06:16:40.845Z,18.13
2023-03-11T06:17:40.789Z,18.16
2023-03-11T06:18:40.766Z,18.14
2023-03-11T06:19:40.787Z,18.13
2023-03-11T06:20:40.810Z,18.11
2023-03-11T06:21:40.965Z,18.11
2023-03-11T06:22:40.854Z,18.17
2023-03-11T06:23:40.880Z,18.17
2023-03-11T06:24:40.902Z,18.17
2023-03-11T06:25:40.934Z,18.20
2023-03-11T06:26:40.959Z,18.19
2023-03-11T06:27:40.948Z,18.26
2023-03-11T06:28:40.959Z,18.26
2023-03-11T06:29:40.997Z,18.28
2023-03-11T06:30:40.978Z,18.28
2023-03-11T06:31:41.094Z,18.29
2023-03-11T06:32:41.133Z,18.29
2023-03-11T06:33:41.029Z,18.31
2023-03-11T06:34:41.010Z,18.29
2023-03-11T06:35:41.058Z,18.28
2023-03-11T06:36:41.046Z,18.29
2023-03-11T06:37:41.099Z,18.31
2023-03-11T06:38:41.082Z,18.36
2023-03-11T06:39:41.102Z,18.35
2023-03-11T06:40:41.086Z,18.36
2023-03-11T06:41:41.119Z,18.35
2023-03-11T06:42:41.148Z,18.39
2023-03-11T06:43:41.144Z,18.39
2023-03-11T06:44:41.137Z,18.38
2023-03-11T06:45:41.201Z,18.42
2023-03-11T06:46:41.184Z,18.41
2023-03-11T06:47:41.211Z,18.39
2023-03-11T06:48:41.232Z,18.41
2023-03-11T06:49:41.240Z,18.38
2023-03-11T06:50:41.224Z,18.46
2023-03-11T06:51:41.254Z,18.44
2023-03-11T06:52:41.278Z,18.46
2023-03-11T06:53:41.281Z,18.46
2023-03-11T06:54:41.273Z,18.44
2023-03-11T06:55:41.301Z,18.49
2023-03-11T06:56:41.326Z,18.49
2023-03-11T06:57:41.365Z,18.47
2023-03-11T06:58:41.388Z,18.51
2023-03-11T06:59:41.385Z,18.49
2023-03-11T07:00:42.763Z,18.54
2023-03-11T07:01:41.399Z,18.51
2023-03-11T07:02:41.386Z,18.53
2023-03-11T07:03:41.419Z,18.53
2023-03-11T07:04:41.379Z,18.54
2023-03-11T07:05:41.432Z,18.49
2023-03-11T07:06:41.415Z,18.50
2023-03-11T07:07:41.414Z,18.50
2023-03-11T07:08:41.437Z,18.54
2023-03-11T07:09:41.462Z,18.56
2023-03-11T07:10:41.492Z,18.60
2023-03-11T07:11:41.548Z,18.60
2023-03-11T07:12:41.530Z,18.57
2023-03-11T07:13:41.566Z,18.57
2023-03-11T07:14:41.549Z,18.60
2023-03-11T07:15:41.580Z,18.60
2023-03-11T07:16:41.672Z,18.57
2023-03-11T07:17:41.617Z,18.59
2023-03-11T07:18:41.643Z,18.60
2023-03-11T07:19:41.667Z,18.60
2023-03-11T07:20:41.695Z,18.59
2023-03-11T07:21:41.768Z,18.56
2023-03-11T07:22:41.745Z,18.59
2023-03-11T07:23:41.763Z,18.56
2023-03-11T07:24:41.788Z,18.56
2023-03-11T07:25:41.776Z,18.59
2023-03-11T07:26:44.201Z,18.59
2023-03-11T07:27:41.773Z,18.64
2023-03-11T07:28:41.792Z,18.59
2023-03-11T07:29:41.825Z,18.60
2023-03-11T07:30:41.863Z,18.64
2023-03-11T07:31:41.908Z,18.60
2023-03-11T07:32:41.952Z,18.57
2023-03-11T07:33:41.863Z,18.60
2023-03-11T07:34:41.882Z,18.57
2023-03-11T07:35:41.945Z,18.56
2023-03-11T07:36:41.965Z,18.59
2023-03-11T07:37:41.964Z,18.62
2023-03-11T07:38:41.997Z,18.64
2023-03-11T07:39:41.932Z,18.62
2023-03-11T07:40:41.948Z,18.65
2023-03-11T07:41:41.983Z,18.64
2023-03-11T07:42:41.982Z,18.65
2023-03-11T07:43:41.966Z,18.65
2023-03-11T07:44:42.005Z,18.64
2023-03-11T07:45:42.080Z,18.65
2023-03-11T07:46:42.044Z,18.64
2023-03-11T07:47:42.040Z,18.68
2023-03-11T07:48:42.053Z,18.72
2023-03-11T07:49:42.030Z,18.72
2023-03-11T07:50:42.063Z,18.71
2023-03-11T07:51:42.076Z,18.76
2023-03-11T07:52:42.097Z,18.82
2023-03-11T07:53:42.164Z,18.82
2023-03-11T07:54:42.106Z,18.83
2023-03-11T07:55:42.131Z,18.79
2023-03-11T07:56:42.158Z,18.82
2023-03-11T07:57:42.188Z,18.83
2023-03-11T07:58:44.074Z,18.87
2023-03-11T07:59:42.218Z,18.87
2023-03-11T08:00:42.238Z,18.90
2023-03-11T08:01:42.226Z,18.89
2023-03-11T08:02:42.304Z,18.90
2023-03-11T08:03:42.352Z,18.84
2023-03-11T08:04:42.280Z,18.84
2023-03-11T08:05:42.313Z,18.87
2023-03-11T08:06:42.300Z,18.90
2023-03-11T08:07:42.329Z,18.96
2023-03-11T08:08:42.354Z,18.97
2023-03-11T08:09:42.394Z,18.99
2023-03-11T08:10:42.380Z,19.01
2023-03-11T08:11:42.411Z,18.97
2023-03-11T08:12:42.438Z,18.99
2023-03-11T08:13:42.470Z,19.02
2023-03-11T08:14:42.451Z,19.06
2023-03-11T08:15:42.498Z,19.07
2023-03-11T08:16:42.481Z,19.07
2023-03-11T08:17:42.470Z,18.97
2023-03-11T08:18:42.521Z,18.94
2023-03-11T08:19:42.492Z,18.96
2023-03-11T08:20:42.746Z,18.97
2023-03-11T08:21:42.565Z,18.93
2023-03-11T08:22:55.668Z,18.90
2023-03-11T08:23:42.558Z,18.89
2023-03-11T08:24:42.582Z,18.90
2023-03-11T08:25:42.581Z,18.91
2023-03-11T08:26:42.568Z,19.01
2023-03-11T08:27:42.541Z,19.01
2023-03-11T08:28:42.582Z,19.02
2023-03-11T08:29:42.559Z,19.02
2023-03-11T08:30:42.741Z,19.01
2023-03-11T08:31:42.578Z,19.02
2023-03-11T08:32:42.675Z,19.07
2023-03-11T08:33:42.895Z,19.12
2023-03-11T08:34:42.615Z,19.16
2023-03-11T08:35:42.699Z,19.13
2023-03-11T08:36:42.651Z,19.15
2023-03-11T08:37:42.681Z,19.23
2023-03-11T08:38:42.815Z,19.34
2023-03-11T08:39:42.725Z,19.42
2023-03-11T08:40:42.767Z,19.40
2023-03-11T08:41:42.786Z,19.34
2023-03-11T08:42:42.738Z,19.32
2023-03-11T08:43:42.796Z,19.28
2023-03-11T08:44:42.761Z,19.30
2023-03-11T08:45:42.790Z,19.28
2023-03-11T08:46:42.846Z,19.30
2023-03-11T08:47:42.820Z,19.25
2023-03-11T08:48:42.867Z,19.27
2023-03-11T08:49:42.877Z,19.23
2023-03-11T08:50:53.319Z,19.20
2023-03-11T08:51:42.864Z,19.20
2023-03-11T08:52:42.881Z,19.17
2023-03-11T08:53:42.935Z,19.13
2023-03-11T08:54:42.919Z,19.13
2023-03-11T08:55:42.949Z,19.13
2023-03-11T08:56:42.973Z,19.12
2023-03-11T08:57:43.020Z,19.09
2023-03-11T08:58:43.009Z,19.07
2023-03-11T08:59:42.995Z,19.12
2023-03-11T09:00:43.026Z,19.09
2023-03-11T09:01:43.060Z,19.09
2023-03-11T09:02:43.073Z,19.12
2023-03-11T09:03:43.074Z,19.15
2023-03-11T09:04:43.054Z,19.20
2023-03-11T09:05:43.121Z,19.17
2023-03-11T09:06:43.091Z,19.16
2023-03-11T09:07:43.081Z,19.20
2023-03-11T09:08:43.078Z,19.21
2023-03-11T09:09:43.101Z,19.25
2023-03-11T09:10:43.125Z,19.24
2023-03-11T09:11:43.159Z,19.24
2023-03-11T09:12:43.149Z,19.23
2023-03-11T09:13:43.223Z,19.17
2023-03-11T09:14:43.218Z,19.16
2023-03-11T09:15:43.196Z,19.20
2023-03-11T09:16:43.211Z,19.20
2023-03-11T09:17:43.188Z,19.21
2023-03-11T09:18:43.245Z,19.24
2023-03-11T09:19:43.223Z,19.25
2023-03-11T09:20:43.205Z,19.27
2023-03-11T09:21:43.202Z,19.32
2023-03-11T09:22:43.237Z,19.35
2023-03-11T09:23:44.490Z,19.39
2023-03-11T09:24:43.270Z,19.40
2023-03-11T09:25:43.257Z,19.39
2023-03-11T09:26:43.291Z,19.40
2023-03-11T09:27:43.319Z,19.42
2023-03-11T09:28:43.314Z,19.43
2023-03-11T09:29:43.368Z,19.45
2023-03-11T09:30:43.366Z,19.43
2023-03-11T09:31:43.430Z,19.40
2023-03-11T09:32:43.419Z,19.40
2023-03-11T09:33:43.367Z,19.45
2023-03-11T09:34:43.392Z,19.46
2023-03-11T09:35:43.455Z,19.52
2023-03-11T09:36:43.455Z,19.49
2023-03-11T09:37:43.473Z,19.45
2023-03-11T09:38:43.502Z,19.45
2023-03-11T09:39:43.515Z,19.42
2023-03-11T09:40:45.404Z,19.42
2023-03-11T09:41:57.146Z,19.40
2023-03-11T09:42:43.567Z,19.40
2023-03-11T09:43:43.584Z,19.42
2023-03-11T09:44:43.614Z,19.45
2023-03-11T09:45:43.652Z,19.47
2023-03-11T09:46:43.732Z,19.55
2023-03-11T09:47:43.661Z,19.58
2023-03-11T09:48:43.681Z,19.60
2023-03-11T09:49:43.717Z,19.62
2023-03-11T09:50:43.747Z,19.65
2023-03-11T09:51:43.768Z,19.70
2023-03-11T09:52:43.761Z,19.70
2023-03-11T09:53:43.829Z,19.75
2023-03-11T09:54:43.811Z,19.76
2023-03-11T09:55:43.815Z,19.75
2023-03-11T09:56:44.598Z,19.72
2023-03-11T09:57:43.792Z,19.75
2023-03-11T09:58:43.788Z,19.70
2023-03-11T09:59:43.772Z,19.68
2023-03-11T10:00:43.813Z,19.68
2023-03-11T10:01:43.882Z,19.64
2023-03-11T10:02:44.022Z,19.64
2023-03-11T10:03:43.854Z,19.64
2023-03-11T10:04:43.884Z,19.68
2023-03-11T10:05:44.141Z,19.67
2023-03-11T10:06:43.934Z,19.62
2023-03-11T10:07:43.957Z,19.61
2023-03-11T10:08:43.979Z,19.57
2023-03-11T10:09:44.024Z,19.60
2023-03-11T10:10:44.049Z,19.58
2023-03-11T10:11:44.089Z,19.55
2023-03-11T10:12:44.079Z,19.52
2023-03-11T10:13:44.118Z,19.52
2023-03-11T10:14:44.099Z,19.50
2023-03-11T10:15:44.140Z,19.49
2023-03-11T10:16:44.276Z,19.49
2023-03-11T10:17:44.207Z,19.49
2023-03-11T10:18:44.188Z,19.46
2023-03-11T10:19:44.212Z,19.46
2023-03-11T10:20:44.202Z,19.43
2023-03-11T10:21:44.235Z,19.43
2023-03-11T10:22:44.259Z,19.45
2023-03-11T10:23:44.286Z,19.42
2023-03-11T10:24:44.328Z,19.43
2023-03-11T10:25:44.311Z,19.43
2023-03-11T10:26:44.328Z,19.45
2023-03-11T10:27:44.353Z,19.46
2023-03-11T10:28:44.345Z,19.47
2023-03-11T10:29:44.396Z,19.49
2023-03-11T10:30:44.397Z,19.52
2023-03-11T10:31:44.521Z,19.50
2023-03-11T10:32:44.456Z,19.52
2023-03-11T10:33:46.590Z,19.49
2023-03-11T10:34:44.437Z,19.47
2023-03-11T10:35:44.443Z,19.50
2023-03-11T10:36:44.439Z,19.49
2023-03-11T10:37:49.622Z,19.49
2023-03-11T10:38:44.464Z,19.47
2023-03-11T10:39:44.502Z,19.49
2023-03-11T10:40:44.520Z,19.52
2023-03-11T10:41:44.541Z,19.52
2023-03-11T10:42:44.555Z,19.53
2023-03-11T10:43:44.544Z,19.57
2023-03-11T10:44:44.566Z,19.61
2023-03-11T10:45:44.618Z,19.64
2023-03-11T10:46:44.564Z,19.67
2023-03-11T10:47:44.583Z,19.70
2023-03-11T10:48:44.603Z,19.75
2023-03-11T10:49:44.673Z,19.79
2023-03-11T10:50:44.610Z,19.86
2023-03-11T10:51:44.642Z,19.86
2023-03-11T10:52:44.664Z,19.87
2023-03-11T10:53:44.697Z,19.94
2023-03-11T10:54:44.729Z,19.97
2023-03-11T10:55:44.727Z,19.97
2023-03-11T10:56:44.757Z,19.97
2023-03-11T10:57:44.741Z,19.97
2023-03-11T10:58:44.773Z,19.98
2023-03-11T10:59:44.768Z,20.00
2023-03-11T11:00:44.802Z,20.01
2023-03-11T11:01:44.791Z,20.01
2023-03-11T11:02:44.818Z,20.01
2023-03-11T11:03:44.840Z,20.00
2023-03-11T11:04:44.892Z,19.97
2023-03-11T11:05:44.908Z,19.94
2023-03-11T11:06:44.892Z,19.87
2023-03-11T11:07:44.922Z,19.86
2023-03-11T11:08:44.950Z,19.79
2023-03-11T11:09:44.948Z,19.75
2023-03-11T11:10:44.933Z,19.72
2023-03-11T11:11:44.956Z,19.67
2023-03-11T11:12:44.989Z,19.64
2023-03-11T11:13:45.008Z,19.65
2023-03-11T11:14:45.053Z,19.65
2023-03-11T11:15:45.045Z,19.64
2023-03-11T11:16:45.082Z,19.67
2023-03-11T11:17:45.070Z,19.67
2023-03-11T11:18:45.103Z,19.67
2023-03-11T11:19:45.084Z,19.68
2023-03-11T11:20:45.116Z,19.70
2023-03-11T11:21:45.168Z,19.76
2023-03-11T11:22:45.144Z,19.82
2023-03-11T11:23:45.178Z,19.86
2023-03-11T11:24:45.163Z,19.85
2023-03-11T11:25:45.188Z,19.89
2023-03-11T11:26:45.211Z,19.94
2023-03-11T11:27:45.198Z,19.95
2023-03-11T11:28:45.220Z,19.97
2023-03-11T11:29:45.206Z,20.00
2023-03-11T11:30:45.249Z,20.00
2023-03-11T11:31:45.243Z,20.01
2023-03-11T11:32:45.359Z,20.00
2023-03-11T11:33:45.238Z,19.98
2023-03-11T11:34:45.265Z,20.00
2023-03-11T11:35:45.251Z,20.01
2023-03-11T11:36:45.289Z,19.97
2023-03-11T11:37:45.305Z,19.90
2023-03-11T11:38:45.286Z,19.86
2023-03-11T11:39:45.280Z,19.82
2023-03-11T11:40:45.272Z,19.76
2023-03-11T11:41:45.267Z,19.72
2023-03-11T11:42:45.293Z,19.61
2023-03-11T11:43:45.345Z,19.61
2023-03-11T11:44:45.333Z,19.60
2023-03-11T11:45:45.409Z,19.60
2023-03-11T11:46:45.375Z,19.61
2023-03-11T11:47:45.424Z,19.62
2023-03-11T11:48:45.405Z,19.62
2023-03-11T11:49:45.445Z,19.61
2023-03-11T11:50:45.422Z,19.61
2023-03-11T11:51:45.445Z,19.61
2023-03-11T11:52:45.472Z,19.62
2023-03-11T11:53:45.514Z,19.65
2023-03-11T11:54:45.763Z,19.64
2023-03-11T11:55:45.517Z,19.67
2023-03-11T11:56:45.535Z,19.65
2023-03-11T11:57:45.566Z,19.68
2023-03-11T11:58:45.617Z,19.68
2023-03-11T11:59:45.640Z,19.75
2023-03-11T12:00:45.657Z,19.76
2023-03-11T12:01:45.645Z,19.78
2023-03-11T12:02:45.669Z,19.78
2023-03-11T12:03:45.796Z,19.76
2023-03-11T12:04:45.716Z,19.72
2023-03-11T12:05:45.778Z,19.72
2023-03-11T12:06:45.721Z,19.70
2023-03-11T12:07:45.754Z,19.67
2023-03-11T12:08:45.770Z,19.65
2023-03-11T12:09:45.840Z,19.64
2023-03-11T12:10:45.820Z,19.62
2023-03-11T12:11:45.812Z,19.61
2023-03-11T12:12:45.836Z,19.58
2023-03-11T12:13:45.878Z,19.58
2023-03-11T12:14:45.864Z,19.57
2023-03-11T12:15:45.887Z,19.57
2023-03-11T12:16:45.903Z,19.53
2023-03-11T12:17:45.887Z,19.53
2023-03-11T12:18:45.915Z,19.57
2023-03-11T12:19:45.951Z,19.57
2023-03-11T12:20:45.996Z,19.57
2023-03-11T12:21:45.992Z,19.53
2023-03-11T12:22:45.964Z,19.57
2023-03-11T12:23:45.987Z,19.55
2023-03-11T12:24:46.168Z,19.58
2023-03-11T12:25:46.049Z,19.57
2023-03-11T12:26:46.223Z,19.57
2023-03-11T12:27:46.061Z,19.55
2023-03-11T12:28:46.091Z,19.55
2023-03-11T12:29:46.120Z,19.52
2023-03-11T12:30:46.218Z,19.55
2023-03-11T12:31:46.126Z,19.58
2023-03-11T12:32:46.234Z,19.57
2023-03-11T12:33:46.153Z,19.57
2023-03-11T12:34:48.814Z,19.60
2023-03-11T12:35:46.223Z,19.62
2023-03-11T12:36:46.177Z,19.64
2023-03-11T12:37:46.199Z,19.65
2023-03-11T12:38:46.224Z,19.68
2023-03-11T12:39:46.219Z,19.72
2023-03-11T12:40:46.276Z,19.79
2023-03-11T12:41:46.234Z,19.83
2023-03-11T12:42:46.219Z,19.87
2023-03-11T12:43:46.215Z,19.94
2023-03-11T12:44:46.211Z,19.95
2023-03-11T12:45:46.199Z,20.04
2023-03-11T12:46:46.235Z,20.08
2023-03-11T12:47:46.243Z,20.08
2023-03-11T12:48:46.281Z,20.08
2023-03-11T12:49:46.321Z,20.08
2023-03-11T12:50:46.440Z,20.08
2023-03-11T12:51:46.312Z,20.10
2023-03-11T12:52:46.333Z,20.13